Time;durP1;ratioP1;P1;durP2;ratioP2;P2;SDS_P1;SDS_P2;PMS_P1;PMS_P2;Temp;Humidity;BMP_temperature;BMP_pressure;BME280_temperature;BME280_humidity;BME280_pressure;Samples;Min_cycle;Max_cycle;Signal;HPM_P1;HPM_P2
2023/05/25 00:02:14;;;;;;;4.67;3.10;;;11.20;62.40;;;;;;912493;152;27318;-75
2023/05/25 00:04:39;;;;;;;5.57;3.03;;;11.20;62.50;;;;;;911250;152;27707;-75
2023/05/25 00:07:05;;;;;;;5.20;2.70;;;11.20;62.60;;;;;;918166;152;27522;-75
2023/05/25 00:09:32;;;;;;;3.87;3.13;;;11.10;62.90;;;;;;912120;153;27513;-75
2023/05/25 00:11:58;;;;;;;6.53;3.07;;;11.10;62.70;;;;;;935062;150;27322;-75
2023/05/25 00:14:25;;;;;;;7.57;3.17;;;11.10;62.90;;;;;;934097;149;27307;-75
2023/05/25 00:16:52;;;;;;;4.60;2.90;;;11.00;62.80;;;;;;935036;149;27454;-75
2023/05/25 00:19:18;;;;;;;7.07;3.13;;;11.00;63.00;;;;;;918631;152;27379;-75
2023/05/25 00:21:47;;;;;;;7.17;3.10;;;11.00;63.10;;;;;;911374;152;27296;-75
2023/05/25 00:24:11;;;;;;;5.67;3.00;;;10.90;63.20;;;;;;933971;149;27440;-75
2023/05/25 00:26:38;;;;;;;4.50;3.03;;;10.90;63.30;;;;;;923396;152;27370;-75
2023/05/25 00:29:05;;;;;;;6.13;3.00;;;10.90;63.30;;;;;;912150;152;27825;-75
2023/05/25 00:31:35;;;;;;;4.73;2.97;;;10.90;63.20;;;;;;935200;149;27353;-75
2023/05/25 00:34:00;;;;;;;5.87;3.07;;;10.80;63.50;;;;;;915669;152;27450;-75
2023/05/25 00:36:27;;;;;;;6.40;3.07;;;10.80;64.00;;;;;;934710;148;27441;-75
2023/05/25 00:38:54;;;;;;;7.77;3.00;;;10.80;64.00;;;;;;933415;149;27363;-75
2023/05/25 00:41:21;;;;;;;3.70;2.90;;;10.70;64.10;;;;;;933530;149;27364;-75
2023/05/25 00:43:47;;;;;;;6.87;3.20;;;10.70;64.10;;;;;;933544;149;27436;-75
2023/05/25 00:46:16;;;;;;;5.33;2.87;;;10.70;64.50;;;;;;933776;149;27362;-75
2023/05/25 00:48:43;;;;;;;5.03;3.00;;;10.60;64.30;;;;;;933213;149;27359;-75
2023/05/25 00:51:09;;;;;;;4.83;3.23;;;10.60;64.60;;;;;;934483;149;27289;-74
2023/05/25 00:53:36;;;;;;;3.67;2.50;;;10.60;64.70;;;;;;933623;149;27409;-75
2023/05/25 00:56:03;;;;;;;7.87;3.27;;;10.50;64.80;;;;;;938833;149;27380;-74
2023/05/25 00:58:29;;;;;;;5.23;2.60;;;10.50;65.10;;;;;;930147;151;27407;-75
2023/05/25 01:00:56;;;;;;;6.03;2.67;;;10.50;65.20;;;;;;929779;151;27353;-74
2023/05/25 01:03:27;;;;;;;4.53;3.17;;;10.50;65.10;;;;;;946760;148;27448;-74
2023/05/25 01:05:49;;;;;;;5.90;3.13;;;10.40;65.10;;;;;;930561;151;27395;-74
2023/05/25 01:08:16;;;;;;;6.43;2.97;;;10.40;65.40;;;;;;947467;148;27363;-74
2023/05/25 01:10:42;;;;;;;4.23;2.90;;;10.40;65.60;;;;;;946616;149;27411;-74
2023/05/25 01:13:09;;;;;;;6.60;3.07;;;10.40;65.70;;;;;;947522;149;27426;-75
2023/05/25 01:15:35;;;;;;;4.37;2.50;;;10.40;65.90;;;;;;946827;149;27369;-74
2023/05/25 01:18:02;;;;;;;4.83;2.87;;;10.30;65.70;;;;;;947314;149;27375;-75
2023/05/25 01:20:31;;;;;;;5.63;2.67;;;10.30;65.20;;;;;;947028;149;27447;-74
2023/05/25 01:22:58;;;;;;;6.37;3.33;;;10.30;66.10;;;;;;947105;149;27359;-75
2023/05/25 01:25:27;;;;;;;4.90;2.97;;;10.30;66.20;;;;;;946996;149;27299;-74
2023/05/25 01:28:11;;;;;;;5.37;2.70;;;10.30;66.50;;;;;;946597;149;27362;-75
2023/05/25 01:30:38;;;;;;;4.33;2.47;;;10.20;66.60;;;;;;944728;149;27330;-75
2023/05/25 01:33:04;;;;;;;4.13;2.57;;;10.20;66.50;;;;;;946376;149;27362;-74
2023/05/25 01:35:31;;;;;;;4.00;2.73;;;10.20;66.80;;;;;;946912;149;27345;-74
2023/05/25 01:37:57;;;;;;;4.63;2.47;;;10.10;66.80;;;;;;927139;151;27844;-74
2023/05/25 01:40:24;;;;;;;3.90;2.70;;;10.10;66.80;;;;;;946409;148;27325;-74
2023/05/25 01:42:50;;;;;;;4.87;2.67;;;10.00;67.00;;;;;;946438;149;28108;-75
2023/05/25 01:45:17;;;;;;;6.00;2.77;;;10.00;67.10;;;;;;946489;149;27269;-74
2023/05/25 01:47:59;;;;;;;7.67;2.60;;;10.00;67.30;;;;;;947665;149;27458;-74
2023/05/25 01:50:43;;;;;;;6.10;2.87;;;10.00;67.50;;;;;;930137;151;28094;-75
2023/05/25 01:53:10;;;;;;;4.37;2.50;;;10.00;67.50;;;;;;924339;149;27316;-74
2023/05/25 01:55:37;;;;;;;5.43;2.60;;;9.90;67.50;;;;;;947038;149;27436;-75
2023/05/25 01:58:03;;;;;;;5.50;2.87;;;9.90;67.70;;;;;;947013;148;27407;-74
2023/05/25 02:00:32;;;;;;;5.03;2.43;;;9.80;67.70;;;;;;946567;149;27464;-75
2023/05/25 02:02:58;;;;;;;5.43;2.73;;;9.80;67.90;;;;;;935663;150;27456;-75
2023/05/25 02:05:26;;;;;;;6.33;3.00;;;9.80;68.10;;;;;;926895;151;27391;-75
2023/05/25 02:07:52;;;;;;;5.60;2.80;;;9.80;68.20;;;;;;930484;151;27396;-74
2023/05/25 02:10:18;;;;;;;4.33;2.43;;;9.80;68.20;;;;;;931236;151;27341;-74
2023/05/25 02:12:45;;;;;;;5.83;2.57;;;9.70;68.20;;;;;;946530;149;27324;-74
2023/05/25 02:15:11;;;;;;;4.13;2.40;;;9.70;68.30;;;;;;947469;148;27405;-75
2023/05/25 02:17:38;;;;;;;4.93;2.43;;;9.70;68.60;;;;;;936330;151;27464;-74
2023/05/25 02:20:07;;;;;;;6.63;3.00;;;9.70;68.60;;;;;;931150;151;27863;-75
2023/05/25 02:22:32;;;;;;;2.90;2.50;;;9.70;68.70;;;;;;929748;151;27365;-75
2023/05/25 02:24:58;;;;;;;3.63;2.50;;;9.70;69.00;;;;;;929569;151;27455;-75
2023/05/25 02:27:24;;;;;;;4.73;3.90;;;9.70;69.10;;;;;;929246;151;27375;-75
2023/05/25 02:29:52;;;;;;;6.37;2.83;;;9.70;69.00;;;;;;926683;151;27402;-75
2023/05/25 02:32:17;;;;;;;4.00;2.80;;;9.70;69.20;;;;;;946419;148;27322;-75
2023/05/25 02:34:45;;;;;;;4.90;2.93;;;9.70;69.40;;;;;;947332;148;27305;-75
2023/05/25 02:37:11;;;;;;;3.63;2.70;;;9.70;69.50;;;;;;946664;149;27404;-75
2023/05/25 02:39:37;;;;;;;3.37;2.30;;;9.70;69.50;;;;;;947128;148;27368;-75
2023/05/25 02:42:04;;;;;;;5.03;3.23;;;9.60;69.60;;;;;;938362;150;27344;-76
2023/05/25 02:44:30;;;;;;;5.93;3.13;;;9.70;69.60;;;;;;938169;150;27258;-75
2023/05/25 02:46:57;;;;;;;7.20;3.10;;;9.60;69.60;;;;;;939000;150;27347;-75
2023/05/25 02:49:23;;;;;;;6.43;2.73;;;9.60;69.60;;;;;;947051;148;27473;-75
2023/05/25 02:51:50;;;;;;;3.07;2.63;;;9.60;69.70;;;;;;947502;148;27348;-75
2023/05/25 02:54:17;;;;;;;5.10;2.70;;;9.60;70.00;;;;;;946990;148;27388;-76
2023/05/25 02:56:43;;;;;;;4.90;2.70;;;9.60;69.80;;;;;;947078;148;27414;-76
2023/05/25 02:59:10;;;;;;;5.00;3.07;;;9.60;69.80;;;;;;934254;149;27413;-75
2023/05/25 03:01:36;;;;;;;3.37;2.70;;;9.60;70.20;;;;;;911947;153;27375;-75
2023/05/25 03:04:03;;;;;;;4.63;2.93;;;9.60;70.20;;;;;;934353;150;27360;-76
2023/05/25 03:06:30;;;;;;;3.67;2.57;;;9.50;70.40;;;;;;934245;149;27355;-76
2023/05/25 03:08:56;;;;;;;5.27;3.10;;;9.60;70.30;;;;;;934361;149;27389;-76
2023/05/25 03:11:23;;;;;;;5.20;2.80;;;9.50;70.50;;;;;;933489;149;27353;-76
2023/05/25 03:13:49;;;;;;;6.00;2.80;;;9.50;70.50;;;;;;933718;149;27347;-76
2023/05/25 03:16:16;;;;;;;4.67;2.90;;;9.50;70.60;;;;;;934234;149;27344;-76
2023/05/25 03:18:42;;;;;;;4.27;2.77;;;9.50;70.80;;;;;;933358;149;27366;-76
2023/05/25 03:21:09;;;;;;;5.10;2.80;;;9.50;71.00;;;;;;933850;149;27874;-76
2023/05/25 03:23:36;;;;;;;3.90;2.93;;;9.50;71.20;;;;;;933132;149;27356;-76
2023/05/25 03:26:02;;;;;;;4.87;2.90;;;9.40;71.10;;;;;;933650;149;27317;-76
2023/05/25 03:28:29;;;;;;;4.80;2.70;;;9.40;71.20;;;;;;933121;149;27502;-76
2023/05/25 03:30:56;;;;;;;3.10;2.60;;;9.40;71.40;;;;;;933019;149;27309;-75
2023/05/25 03:33:22;;;;;;;4.63;3.00;;;9.40;71.60;;;;;;932961;149;27423;-75
2023/05/25 03:35:49;;;;;;;4.63;3.20;;;9.40;71.70;;;;;;933113;149;27456;-75
2023/05/25 03:38:15;;;;;;;4.50;2.83;;;9.40;71.70;;;;;;933922;149;27324;-75
2023/05/25 03:40:42;;;;;;;4.50;2.80;;;9.40;71.70;;;;;;933112;149;27305;-75
2023/05/25 03:43:08;;;;;;;4.83;2.60;;;9.40;71.70;;;;;;933487;149;27445;-75
2023/05/25 03:45:35;;;;;;;3.50;2.93;;;9.40;71.90;;;;;;933474;149;27335;-75
2023/05/25 03:48:01;;;;;;;5.37;2.80;;;9.40;71.80;;;;;;933954;149;27441;-76
2023/05/25 03:50:28;;;;;;;6.17;3.03;;;9.50;72.10;;;;;;933374;149;27862;-75
2023/05/25 03:52:55;;;;;;;4.43;2.63;;;9.50;73.10;;;;;;933207;149;27435;-75
2023/05/25 03:55:21;;;;;;;5.17;3.23;;;9.50;72.30;;;;;;934435;149;27452;-75
2023/05/25 03:57:48;;;;;;;6.50;2.90;;;9.50;72.40;;;;;;936596;149;27385;-75
2023/05/25 04:00:15;;;;;;;5.87;2.93;;;9.60;72.40;;;;;;935984;151;27342;-75
2023/05/25 04:02:41;;;;;;;5.37;3.07;;;9.60;72.60;;;;;;928978;151;27378;-75
2023/05/25 04:05:08;;;;;;;4.00;3.30;;;9.70;72.80;;;;;;947175;148;27466;-75
2023/05/25 04:07:35;;;;;;;4.60;3.07;;;9.70;72.70;;;;;;946973;148;27803;-75
2023/05/25 04:10:01;;;;;;;4.70;3.00;;;9.80;72.80;;;;;;946712;148;27461;-75
2023/05/25 04:12:27;;;;;;;8.10;3.43;;;9.80;72.80;;;;;;945808;148;27446;-75
2023/05/25 04:14:55;;;;;;;7.40;2.73;;;9.90;72.90;;;;;;929481;151;27409;-76
2023/05/25 04:17:23;;;;;;;5.33;3.30;;;9.90;72.90;;;;;;930491;151;27314;-75
2023/05/25 04:19:47;;;;;;;4.80;2.70;;;10.00;72.90;;;;;;930423;151;27430;-76
2023/05/25 04:22:14;;;;;;;5.53;3.43;;;10.00;73.00;;;;;;936282;151;27344;-76
2023/05/25 04:24:40;;;;;;;4.10;3.30;;;10.10;73.00;;;;;;930620;151;27366;-76
2023/05/25 04:27:07;;;;;;;4.03;2.57;;;10.10;73.20;;;;;;946524;148;27472;-76
2023/05/25 04:29:33;;;;;;;3.93;2.90;;;10.20;73.20;;;;;;946700;148;27352;-76
2023/05/25 04:32:01;;;;;;;5.83;2.97;;;10.30;73.30;;;;;;934594;151;27330;-76
2023/05/25 04:34:28;;;;;;;3.23;2.67;;;10.40;73.40;;;;;;928924;151;27432;-76
2023/05/25 04:36:53;;;;;;;5.17;3.50;;;10.50;73.40;;;;;;930375;151;27468;-76
2023/05/25 04:39:20;;;;;;;6.67;3.10;;;10.60;73.50;;;;;;927616;152;27421;-76
2023/05/25 04:41:47;;;;;;;5.37;2.97;;;10.70;73.30;;;;;;946102;150;27390;-76
2023/05/25 04:44:13;;;;;;;4.43;3.10;;;10.80;73.20;;;;;;946344;149;27462;-76
2023/05/25 04:46:40;;;;;;;3.43;2.87;;;10.90;73.20;;;;;;946072;151;27465;-75
2023/05/25 04:49:09;;;;;;;3.50;2.60;;;11.00;73.20;;;;;;945996;149;27340;-75
2023/05/25 04:51:33;;;;;;;5.63;3.03;;;11.10;73.10;;;;;;946029;149;27331;-75
2023/05/25 04:53:59;;;;;;;3.83;2.70;;;11.20;73.00;;;;;;930440;151;27376;-75
2023/05/25 04:56:26;;;;;;;5.00;3.00;;;11.30;73.30;;;;;;930445;151;27379;-76
2023/05/25 04:58:52;;;;;;;6.17;3.30;;;11.50;73.40;;;;;;922841;152;27430;-75
2023/05/25 05:01:19;;;;;;;3.73;2.70;;;11.80;73.90;;;;;;934601;150;27445;-75
2023/05/25 05:03:46;;;;;;;3.13;2.77;;;12.10;74.30;;;;;;934065;149;27414;-75
2023/05/25 05:06:12;;;;;;;2.90;2.60;;;12.50;74.90;;;;;;934867;150;27358;-75
2023/05/25 05:08:40;;;;;;;4.30;2.87;;;13.00;75.40;;;;;;934622;149;27838;-75
2023/05/25 05:11:05;;;;;;;3.20;2.77;;;13.50;75.50;;;;;;934658;149;27281;-75
2023/05/25 05:13:32;;;;;;;2.62;2.22;;;14.10;75.20;;;;;;912762;153;27938;-75
2023/05/25 05:15:59;;;;;;;3.72;2.83;;;14.80;75.00;;;;;;935713;149;27382;-75
2023/05/25 05:18:25;;;;;;;4.33;2.90;;;15.50;74.60;;;;;;918221;152;27415;-75
2023/05/25 05:20:52;;;;;;;3.67;2.10;;;16.20;73.90;;;;;;935292;149;27427;-75
2023/05/25 05:23:18;;;;;;;4.15;2.62;;;16.90;72.50;;;;;;917948;152;27394;-75
2023/05/25 05:25:45;;;;;;;3.42;2.45;;;17.60;71.00;;;;;;935288;149;27390;-75
2023/05/25 05:28:12;;;;;;;3.77;2.45;;;18.30;69.50;;;;;;934943;149;27358;-75
2023/05/25 05:30:38;;;;;;;4.35;2.20;;;18.90;68.30;;;;;;935296;149;27369;-76
2023/05/25 05:33:05;;;;;;;3.30;2.10;;;19.40;66.60;;;;;;935021;149;27310;-76
2023/05/25 05:35:31;;;;;;;4.47;2.50;;;19.90;65.60;;;;;;918740;152;27304;-76
2023/05/25 05:37:58;;;;;;;2.67;2.12;;;20.40;64.50;;;;;;934703;149;27338;-76
2023/05/25 05:40:25;;;;;;;2.45;2.20;;;20.80;63.40;;;;;;933865;149;27436;-76
2023/05/25 05:42:51;;;;;;;2.83;1.72;;;21.20;62.60;;;;;;934500;149;27255;-76
2023/05/25 05:45:18;;;;;;;3.27;2.33;;;21.70;61.70;;;;;;917920;152;27772;-76
2023/05/25 05:47:45;;;;;;;3.67;2.40;;;22.10;60.60;;;;;;934434;149;27344;-76
2023/05/25 05:50:11;;;;;;;2.42;1.90;;;22.40;59.70;;;;;;921858;152;27387;-76
2023/05/25 05:52:37;;;;;;;8.95;3.00;;;22.70;59.00;;;;;;912828;153;27847;-76
2023/05/25 05:55:05;;;;;;;4.37;2.30;;;23.10;58.50;;;;;;935054;149;27404;-76
2023/05/25 05:57:31;;;;;;;3.35;1.87;;;23.40;57.90;;;;;;935347;149;27392;-76
2023/05/25 05:59:57;;;;;;;3.85;2.55;;;23.70;57.40;;;;;;941134;148;27494;-76
2023/05/25 06:02:24;;;;;;;3.92;2.30;;;24.00;56.90;;;;;;947691;148;27359;-76
2023/05/25 06:04:50;;;;;;;2.98;2.30;;;24.30;56.50;;;;;;947233;148;27340;-76
2023/05/25 06:07:17;;;;;;;2.87;2.55;;;24.70;56.00;;;;;;947100;148;27415;-76
2023/05/25 06:09:44;;;;;;;2.75;1.87;;;25.00;55.40;;;;;;947554;148;27388;-76
2023/05/25 06:12:10;;;;;;;2.95;2.12;;;25.30;55.00;;;;;;946912;149;27864;-76
2023/05/25 06:14:37;;;;;;;4.35;2.22;;;25.70;54.60;;;;;;947274;149;27453;-76
2023/05/25 06:17:03;;;;;;;5.45;2.30;;;26.10;54.30;;;;;;947360;148;27399;-75
2023/05/25 06:19:30;;;;;;;3.47;2.25;;;26.50;53.60;;;;;;926066;151;27343;-75
2023/05/25 06:21:57;;;;;;;3.75;2.12;;;26.80;52.90;;;;;;929005;151;27384;-76
2023/05/25 06:24:23;;;;;;;3.70;2.05;;;27.20;52.30;;;;;;926164;152;27447;-75
2023/05/25 06:26:50;;;;;;;3.70;2.25;;;27.50;51.30;;;;;;947578;148;27425;-76
2023/05/25 06:29:16;;;;;;;4.67;2.67;;;27.60;50.50;;;;;;948416;148;27318;-75
2023/05/25 06:31:43;;;;;;;2.98;1.98;;;27.80;50.30;;;;;;947057;148;27492;-76
2023/05/25 06:34:09;;;;;;;3.37;1.98;;;28.00;50.10;;;;;;946548;148;27376;-76
2023/05/25 06:36:36;;;;;;;3.85;2.00;;;28.20;49.90;;;;;;947147;148;27297;-76
2023/05/25 06:39:03;;;;;;;2.17;1.92;;;28.40;49.30;;;;;;947018;149;27293;-76
2023/05/25 06:41:29;;;;;;;3.27;2.00;;;28.60;48.90;;;;;;947714;148;27325;-76
2023/05/25 06:43:56;;;;;;;2.65;2.35;;;28.80;48.70;;;;;;947520;148;27443;-76
2023/05/25 06:46:22;;;;;;;3.40;2.50;;;28.90;48.10;;;;;;926737;151;26300;-76
2023/05/25 06:48:49;;;;;;;3.92;2.70;;;29.00;48.50;;;;;;930752;151;27340;-76
2023/05/25 06:51:16;;;;;;;4.03;2.20;;;29.20;47.70;;;;;;930585;151;26240;-76
2023/05/25 06:53:43;;;;;;;4.75;2.80;;;29.30;47.50;;;;;;931135;151;27414;-76
2023/05/25 06:56:09;;;;;;;4.45;2.47;;;29.50;47.10;;;;;;929863;151;26245;-76
2023/05/25 06:58:35;;;;;;;2.67;2.08;;;29.60;46.80;;;;;;926822;152;27410;-76
2023/05/25 07:01:02;;;;;;;2.75;2.10;;;29.80;46.30;;;;;;947630;148;27368;-76
2023/05/25 07:03:29;;;;;;;3.75;2.50;;;30.00;46.10;;;;;;946904;149;27336;-76
2023/05/25 07:05:55;;;;;;;4.47;2.17;;;30.10;45.90;;;;;;929774;151;27453;-76
2023/05/25 07:08:22;;;;;;;3.80;2.67;;;30.30;46.00;;;;;;926272;151;27446;-76
2023/05/25 07:10:48;;;;;;;4.35;2.27;;;30.50;45.70;;;;;;947519;148;27461;-76
2023/05/25 07:13:15;;;;;;;3.70;2.47;;;30.80;45.30;;;;;;947231;149;27399;-76
2023/05/25 07:15:41;;;;;;;3.58;2.58;;;31.00;45.00;;;;;;947417;148;27348;-76
2023/05/25 07:18:11;;;;;;;3.70;2.50;;;31.20;44.10;;;;;;931169;151;27319;-76
2023/05/25 07:20:35;;;;;;;4.20;2.30;;;31.40;44.10;;;;;;947197;148;27279;-76
2023/05/25 07:23:01;;;;;;;3.70;2.52;;;31.50;43.90;;;;;;930199;151;27302;-76
2023/05/25 07:25:28;;;;;;;4.53;2.30;;;31.70;43.60;;;;;;932780;151;27375;-76
2023/05/25 07:27:54;;;;;;;5.17;2.55;;;31.80;43.20;;;;;;946724;149;27336;-76
2023/05/25 07:30:21;;;;;;;4.12;2.77;;;31.90;42.90;;;;;;946636;148;26264;-76
2023/05/25 07:32:48;;;;;;;4.67;2.37;;;32.10;42.80;;;;;;946723;149;27263;-76
2023/05/25 07:35:14;;;;;;;4.50;2.70;;;32.30;42.80;;;;;;947592;148;27429;-76
2023/05/25 07:37:41;;;;;;;3.17;2.30;;;32.50;42.50;;;;;;946788;148;26372;-76
2023/05/25 07:40:07;;;;;;;4.70;2.17;;;32.70;42.40;;;;;;947542;148;26307;-76
2023/05/25 07:42:34;;;;;;;3.17;2.20;;;32.90;42.30;;;;;;934593;150;26301;-76
2023/05/25 07:45:01;;;;;;;3.75;2.50;;;33.30;42.30;;;;;;928118;152;26289;-76
2023/05/25 07:47:27;;;;;;;3.65;2.58;;;33.60;41.80;;;;;;928865;152;26373;-76
2023/05/25 07:49:54;;;;;;;2.70;1.90;;;34.00;41.00;;;;;;946727;151;27423;-76
2023/05/25 07:52:20;;;;;;;2.47;2.10;;;34.30;40.80;;;;;;945769;151;26198;-76
2023/05/25 07:54:47;;;;;;;2.72;1.87;;;34.60;40.40;;;;;;946887;149;27726;-76
2023/05/25 07:57:14;;;;;;;4.12;2.40;;;34.90;39.90;;;;;;946437;151;26268;-76
2023/05/25 07:59:40;;;;;;;3.08;2.05;;;35.10;39.50;;;;;;946078;151;26392;-76
2023/05/25 08:02:07;;;;;;;2.10;1.90;;;35.40;39.30;;;;;;942734;150;26196;-76
2023/05/25 08:04:34;;;;;;;2.58;1.95;;;35.60;38.90;;;;;;932389;149;26231;-76
2023/05/25 08:07:00;;;;;;;4.17;2.12;;;35.90;38.70;;;;;;932572;149;26372;-76
2023/05/25 08:09:27;;;;;;;4.17;2.17;;;36.10;38.20;;;;;;913191;152;26349;-76
2023/05/25 08:11:53;;;;;;;2.55;1.82;;;36.30;37.60;;;;;;913220;152;26308;-76
2023/05/25 08:14:20;;;;;;;2.80;1.70;;;36.50;37.40;;;;;;917785;152;26263;-76
2023/05/25 08:16:46;;;;;;;1.60;1.50;;;36.70;36.90;;;;;;911193;152;27420;-76
2023/05/25 08:19:13;;;;;;;2.98;2.08;;;36.90;36.60;;;;;;935332;149;26362;-76
2023/05/25 08:21:39;;;;;;;3.90;1.70;;;37.10;35.80;;;;;;917949;152;26273;-76
2023/05/25 08:24:07;;;;;;;2.62;1.92;;;37.20;35.60;;;;;;911525;152;27345;-76
2023/05/25 08:26:35;;;;;;;4.03;2.15;;;37.40;35.50;;;;;;916612;152;26415;-76
2023/05/25 08:29:01;;;;;;;3.05;2.10;;;37.50;35.10;;;;;;912063;153;27472;-76
2023/05/25 08:31:26;;;;;;;2.92;1.80;;;37.60;34.60;;;;;;934260;150;26278;-76
2023/05/25 08:33:52;;;;;;;2.55;2.27;;;37.60;34.30;;;;;;934642;149;26278;-76
2023/05/25 08:36:19;;;;;;;2.62;2.15;;;37.60;34.20;;;;;;915975;152;26287;-76
2023/05/25 08:38:46;;;;;;;3.83;2.15;;;37.60;33.80;;;;;;934727;150;26229;-76
2023/05/25 08:41:12;;;;;;;3.75;2.37;;;37.60;33.60;;;;;;934246;149;26419;-76
2023/05/25 08:43:39;;;;;;;3.15;1.98;;;37.60;32.90;;;;;;911774;153;26287;-76
2023/05/25 08:46:05;;;;;;;3.37;2.15;;;37.50;33.10;;;;;;934062;149;26206;-76
2023/05/25 08:48:35;;;;;;;2.45;1.80;;;37.50;32.90;;;;;;935802;149;26323;-76
2023/05/25 08:51:01;;;;;;;3.17;1.98;;;37.60;33.30;;;;;;934390;150;26296;-76
2023/05/25 08:53:28;;;;;;;3.47;1.82;;;37.70;33.30;;;;;;934228;149;26284;-76
2023/05/25 08:55:54;;;;;;;2.95;1.87;;;37.70;32.80;;;;;;911341;153;26204;-76
2023/05/25 08:58:21;;;;;;;3.20;1.80;;;38.00;32.60;;;;;;912330;153;26317;-77
2023/05/25 09:00:48;;;;;;;2.47;1.77;;;38.20;32.40;;;;;;926538;152;26296;-77
2023/05/25 09:03:17;;;;;;;2.35;1.70;;;38.40;32.20;;;;;;918897;154;26356;-76
2023/05/25 09:05:44;;;;;;;3.60;1.50;;;38.60;31.70;;;;;;918651;154;26291;-76
2023/05/25 09:08:10;;;;;;;2.12;1.70;;;38.70;30.90;;;;;;919933;153;26272;-77
2023/05/25 09:10:37;;;;;;;2.90;1.90;;;38.70;30.50;;;;;;918877;154;26441;-76
2023/05/25 09:13:03;;;;;;;2.50;1.87;;;38.60;30.10;;;;;;918182;154;26418;-76
2023/05/25 09:15:33;;;;;;;4.35;2.00;;;38.50;30.00;;;;;;917872;154;26631;-76
2023/05/25 09:17:59;;;;;;;3.17;1.67;;;38.50;30.30;;;;;;918757;154;26378;-76
2023/05/25 09:20:30;;;;;;;3.85;2.10;;;38.40;29.80;;;;;;922979;151;26283;-77
2023/05/25 09:22:53;;;;;;;1.62;1.47;;;38.30;29.90;;;;;;921727;151;26284;-77
2023/05/25 09:25:19;;;;;;;2.10;1.72;;;38.10;30.00;;;;;;927194;151;26202;-77
2023/05/25 09:27:46;;;;;;;2.55;1.82;;;38.00;30.00;;;;;;918781;154;26289;-77
2023/05/25 09:30:12;;;;;;;4.62;1.92;;;37.90;30.10;;;;;;918452;154;26298;-77
2023/05/25 09:32:39;;;;;;;3.40;1.82;;;37.90;30.10;;;;;;919757;154;26321;-77
2023/05/25 09:35:12;;;;;;;2.90;1.77;;;37.80;29.90;;;;;;906879;154;26293;-77
2023/05/25 09:37:38;;;;;;;4.17;2.33;;;37.70;29.70;;;;;;906179;155;26423;-77
2023/05/25 09:40:05;;;;;;;4.47;1.80;;;37.60;29.50;;;;;;907250;154;26299;-77
2023/05/25 09:42:31;;;;;;;1.98;1.85;;;37.30;29.40;;;;;;905309;154;26330;-77
2023/05/25 09:44:58;;;;;;;2.30;1.85;;;37.10;29.60;;;;;;908371;154;26326;-77
2023/05/25 09:47:25;;;;;;;2.52;1.82;;;36.90;29.60;;;;;;912127;154;26266;-77
2023/05/25 09:49:51;;;;;;;3.27;1.82;;;36.80;29.50;;;;;;906828;154;26333;-77
2023/05/25 09:52:18;;;;;;;3.52;1.70;;;36.50;29.50;;;;;;906069;154;27496;-77
2023/05/25 09:54:47;;;;;;;2.10;1.52;;;36.30;29.30;;;;;;906921;155;26402;-77
2023/05/25 09:57:14;;;;;;;3.70;2.10;;;36.00;29.20;;;;;;923027;151;26332;-77
2023/05/25 09:59:40;;;;;;;2.35;1.70;;;35.70;29.30;;;;;;924025;151;26623;-77
2023/05/25 10:02:07;;;;;;;2.37;1.92;;;35.30;29.40;;;;;;912825;151;26363;-77
2023/05/25 10:04:33;;;;;;;3.12;1.75;;;34.90;28.90;;;;;;932354;151;27397;-77
2023/05/25 10:07:00;;;;;;;4.30;2.15;;;34.40;29.10;;;;;;949265;151;27296;-77
2023/05/25 10:09:30;;;;;;;2.08;1.80;;;34.00;29.10;;;;;;934619;151;27704;-77
2023/05/25 10:11:56;;;;;;;2.27;1.70;;;33.40;29.30;;;;;;951462;148;27305;-77
2023/05/25 10:14:24;;;;;;;3.50;2.00;;;32.90;29.30;;;;;;951592;148;27459;-77
2023/05/25 10:16:50;;;;;;;2.12;1.72;;;32.40;29.50;;;;;;934435;150;27338;-76
2023/05/25 10:19:17;;;;;;;2.35;1.82;;;32.00;29.70;;;;;;931168;151;27338;-76
2023/05/25 10:21:42;;;;;;;2.92;2.30;;;31.50;29.60;;;;;;932073;151;27357;-77
2023/05/25 10:24:09;;;;;;;2.17;1.77;;;31.10;29.70;;;;;;948851;148;27361;-76
2023/05/25 10:26:36;;;;;;;3.12;1.90;;;30.70;29.80;;;;;;947003;151;27365;-76
2023/05/25 10:29:03;;;;;;;1.70;1.60;;;30.30;29.70;;;;;;948572;151;27408;-77
2023/05/25 10:31:29;;;;;;;2.52;1.70;;;29.90;29.90;;;;;;947287;148;27716;-76
2023/05/25 10:33:55;;;;;;;2.65;2.08;;;29.40;30.20;;;;;;947352;151;27321;-76
2023/05/25 10:36:22;;;;;;;5.28;1.82;;;29.00;30.60;;;;;;946989;149;27374;-76
2023/05/25 10:38:49;;;;;;;3.50;1.70;;;28.60;30.70;;;;;;947101;151;27329;-76
2023/05/25 10:41:15;;;;;;;2.27;1.67;;;28.30;31.30;;;;;;947745;150;27303;-76
2023/05/25 10:43:42;;;;;;;2.27;1.52;;;28.00;31.40;;;;;;947883;151;27447;-76
2023/05/25 10:46:08;;;;;;;3.65;2.17;;;27.80;32.00;;;;;;931629;151;27490;-76
2023/05/25 10:48:38;;;;;;;1.95;1.80;;;27.50;32.20;;;;;;931990;151;27432;-76
2023/05/25 10:51:05;;;;;;;2.45;1.67;;;27.30;32.30;;;;;;932169;151;27363;-76
2023/05/25 10:53:31;;;;;;;2.02;1.82;;;27.20;32.60;;;;;;951748;148;27309;-76
2023/05/25 10:55:57;;;;;;;2.55;1.85;;;26.90;32.80;;;;;;952301;148;27360;-76
2023/05/25 10:58:24;;;;;;;2.37;2.17;;;26.70;33.00;;;;;;952147;148;27416;-76
2023/05/25 11:00:57;;;;;;;4.85;2.50;;;26.50;33.30;;;;;;951550;147;27305;-76
2023/05/25 11:03:23;;;;;;;2.47;2.27;;;26.40;33.60;;;;;;950783;148;27410;-76
2023/05/25 11:05:50;;;;;;;3.12;2.30;;;26.20;34.00;;;;;;948111;148;27371;-76
2023/05/25 11:08:20;;;;;;;2.67;2.30;;;26.10;34.30;;;;;;952187;148;27367;-76
2023/05/25 11:10:49;;;;;;;3.75;2.37;;;25.90;34.50;;;;;;950614;148;27921;-76
2023/05/25 11:13:31;;;;;;;2.65;2.15;;;25.80;35.30;;;;;;951867;148;27305;-76
2023/05/25 11:16:19;;;;;;;2.72;2.15;;;25.70;34.90;;;;;;952602;148;27341;-76
2023/05/25 11:18:45;;;;;;;2.72;1.85;;;25.60;34.90;;;;;;952359;147;27376;-76
2023/05/25 11:21:15;;;;;;;2.20;1.90;;;25.50;35.20;;;;;;934979;150;27347;-76
2023/05/25 11:23:47;;;;;;;5.42;2.12;;;25.30;35.70;;;;;;951100;148;27367;-76
2023/05/25 11:26:13;;;;;;;2.02;1.87;;;25.30;35.80;;;;;;950834;148;27375;-76
2023/05/25 11:28:40;;;;;;;3.20;2.27;;;25.20;35.80;;;;;;950400;148;27450;-76
2023/05/25 11:31:07;;;;;;;3.08;1.85;;;25.10;35.90;;;;;;951772;147;27301;-76
2023/05/25 11:33:33;;;;;;;2.58;2.20;;;25.00;36.20;;;;;;952737;147;27394;-76
2023/05/25 11:36:00;;;;;;;4.72;2.25;;;25.00;36.20;;;;;;953873;147;27382;-76
2023/05/25 11:38:27;;;;;;;3.52;2.20;;;24.90;36.00;;;;;;932255;151;27489;-76
2023/05/25 11:40:53;;;;;;;3.30;2.05;;;24.90;36.00;;;;;;951485;148;27666;-76
2023/05/25 11:43:19;;;;;;;3.92;2.50;;;24.80;36.20;;;;;;952106;148;27375;-76
2023/05/25 11:45:47;;;;;;;3.85;2.20;;;24.80;36.50;;;;;;929368;150;27364;-76
2023/05/25 11:48:14;;;;;;;2.65;1.90;;;24.70;36.80;;;;;;933476;150;27482;-76
2023/05/25 11:50:39;;;;;;;4.30;2.20;;;24.70;36.90;;;;;;951764;148;27352;-76
2023/05/25 11:53:06;;;;;;;2.35;2.08;;;24.70;36.70;;;;;;935742;150;27443;-76
2023/05/25 11:55:32;;;;;;;2.62;2.40;;;24.70;36.80;;;;;;934577;151;27315;-76
2023/05/25 11:57:59;;;;;;;2.08;1.87;;;24.80;37.40;;;;;;950486;148;27448;-76
2023/05/25 12:00:26;;;;;;;3.08;2.25;;;24.80;36.70;;;;;;952202;148;27430;-76
2023/05/25 12:02:52;;;;;;;4.12;2.27;;;24.80;36.80;;;;;;928785;150;27463;-76
2023/05/25 12:05:19;;;;;;;4.15;2.47;;;24.70;37.10;;;;;;932715;150;27429;-76
2023/05/25 12:07:45;;;;;;;2.42;2.22;;;24.80;37.30;;;;;;935044;151;27382;-76
2023/05/25 12:10:12;;;;;;;3.12;2.40;;;24.80;37.40;;;;;;951446;148;27390;-76
2023/05/25 12:12:44;;;;;;;3.15;2.47;;;24.70;37.50;;;;;;951611;148;27394;-76
2023/05/25 12:15:11;;;;;;;2.35;2.00;;;24.80;37.50;;;;;;951417;148;27421;-76
2023/05/25 12:17:37;;;;;;;4.75;2.00;;;24.80;37.60;;;;;;952025;148;27368;-77
2023/05/25 12:20:06;;;;;;;2.60;2.33;;;24.70;37.60;;;;;;936005;150;27486;-82
2023/05/25 12:22:31;;;;;;;4.35;2.37;;;24.70;37.60;;;;;;932833;151;27420;-82
2023/05/25 12:24:57;;;;;;;3.15;2.30;;;24.70;37.50;;;;;;949577;151;27382;-82
2023/05/25 12:27:24;;;;;;;2.72;2.37;;;24.70;37.50;;;;;;949451;151;27285;-81
2023/05/25 12:29:51;;;;;;;2.52;2.00;;;24.70;37.70;;;;;;929183;150;27410;-82
2023/05/25 12:32:17;;;;;;;3.22;2.30;;;24.70;38.10;;;;;;928974;150;27338;-82
2023/05/25 12:34:43;;;;;;;4.08;2.47;;;24.70;38.10;;;;;;934529;151;27346;-82
2023/05/25 12:37:17;;;;;;;2.40;2.20;;;24.80;38.20;;;;;;951636;148;27297;-82
2023/05/25 12:39:43;;;;;;;3.70;2.20;;;24.80;38.20;;;;;;952204;148;27743;-82
2023/05/25 12:42:13;;;;;;;2.17;1.95;;;24.90;38.00;;;;;;951504;148;27364;-82
2023/05/25 12:44:40;;;;;;;2.62;2.42;;;24.90;38.00;;;;;;952805;147;27886;-82
2023/05/25 12:47:15;;;;;;;3.60;2.55;;;25.00;38.00;;;;;;951315;148;27352;-82